createdAt,value
2022-12-22T00:00:36.976Z,79.70
2022-12-22T00:03:48.514Z,79.67
2022-12-22T00:06:36.425Z,79.75
2022-12-22T00:09:24.160Z,79.53
2022-12-22T00:12:11.614Z,79.69
2022-12-22T00:15:00.102Z,79.79
2022-12-22T00:17:49.069Z,79.71
2022-12-22T00:20:46.138Z,79.84
2022-12-22T00:23:33.753Z,79.85
2022-12-22T00:26:29.681Z,79.91
2022-12-22T00:29:17.480Z,79.98
2022-12-22T00:32:05.471Z,79.84
2022-12-22T00:35:08.531Z,79.79
2022-12-22T00:37:56.921Z,79.72
2022-12-22T00:40:49.965Z,79.75
2022-12-22T00:47:05.154Z,79.83
2022-12-22T00:49:54.320Z,79.83
2022-12-22T00:53:06.258Z,79.86
2022-12-22T00:56:06.035Z,79.81
2022-12-22T00:58:53.901Z,79.79
2022-12-22T01:01:44.908Z,79.71
2022-12-22T01:04:35.903Z,79.82
2022-12-22T01:07:23.527Z,79.81
2022-12-22T01:10:12.281Z,79.81
2022-12-22T01:13:00.141Z,79.76
2022-12-22T01:15:49.423Z,79.66
2022-12-22T01:18:36.513Z,79.74
2022-12-22T01:21:25.038Z,79.64
2022-12-22T01:24:13.250Z,79.79
2022-12-22T01:27:00.810Z,79.79
2022-12-22T01:29:49.031Z,79.78
2022-12-22T01:32:43.999Z,79.77
2022-12-22T01:35:46.335Z,79.77
2022-12-22T01:38:35.755Z,79.75
2022-12-22T01:41:28.847Z,79.74
2022-12-22T01:44:20.835Z,79.65
2022-12-22T01:47:10.302Z,79.72
2022-12-22T01:50:02.134Z,79.75
2022-12-22T01:52:53.110Z,79.85
2022-12-22T01:55:48.966Z,79.83
2022-12-22T01:58:53.611Z,79.77
2022-12-22T02:01:47.058Z,79.79
2022-12-22T02:04:40.426Z,79.92
2022-12-22T02:07:42.602Z,79.90
2022-12-22T02:10:52.470Z,79.82
2022-12-22T02:13:57.052Z,79.74
2022-12-22T02:16:50.216Z,79.78
2022-12-22T02:20:04.911Z,79.79
2022-12-22T02:23:02.914Z,79.89
2022-12-22T02:26:05.281Z,79.94
2022-12-22T02:28:55.153Z,80.05
2022-12-22T02:31:55.252Z,80.17
2022-12-22T02:34:45.577Z,80.14
2022-12-22T02:37:40.025Z,80.19
2022-12-22T02:40:41.364Z,80.35
2022-12-22T02:43:49.115Z,80.21
2022-12-22T02:46:45.273Z,80.02
2022-12-22T02:49:40.716Z,80.09
2022-12-22T02:52:33.769Z,79.88
2022-12-22T02:55:24.014Z,79.97
2022-12-22T02:58:17.135Z,80.00
2022-12-22T03:01:10.658Z,80.05
2022-12-22T03:03:59.360Z,80.08
2022-12-22T03:06:48.113Z,80.15
2022-12-22T03:10:03.628Z,80.11
2022-12-22T03:12:51.538Z,80.13
2022-12-22T03:15:39.060Z,80.11
2022-12-22T03:18:29.146Z,80.17
2022-12-22T03:21:17.579Z,80.05
2022-12-22T03:24:06.426Z,79.95
2022-12-22T03:26:35.933Z,80.08
2022-12-22T03:29:05.264Z,80.19
2022-12-22T03:31:36.707Z,80.16
2022-12-22T03:34:07.566Z,80.22
2022-12-22T03:36:36.778Z,80.18
2022-12-22T03:39:06.717Z,80.19
2022-12-22T03:41:54.298Z,80.14
2022-12-22T03:44:45.187Z,80.10
2022-12-22T03:47:20.085Z,80.29
2022-12-22T03:49:49.009Z,80.26
2022-12-22T03:52:19.395Z,80.34
2022-12-22T03:54:52.443Z,80.29
2022-12-22T03:57:21.749Z,80.37
2022-12-22T03:59:56.953Z,80.26
2022-12-22T04:02:27.824Z,80.30
2022-12-22T04:04:58.631Z,80.38
2022-12-22T04:07:28.655Z,80.14
2022-12-22T04:10:15.928Z,80.43
2022-12-22T04:12:55.063Z,80.44
2022-12-22T04:15:35.615Z,80.41
2022-12-22T04:18:09.783Z,80.29
2022-12-22T04:20:38.714Z,80.34
2022-12-22T04:23:08.011Z,80.31
2022-12-22T04:25:37.109Z,80.30
2022-12-22T04:28:06.096Z,80.22
2022-12-22T04:30:36.053Z,80.30
2022-12-22T04:33:10.739Z,80.10
2022-12-22T04:35:40.427Z,80.08
2022-12-22T04:38:19.670Z,80.04
2022-12-22T04:40:55.485Z,80.11
2022-12-22T04:43:28.555Z,80.09
2022-12-22T04:46:03.960Z,80.03
2022-12-22T04:48:40.171Z,80.14
2022-12-22T04:51:09.552Z,80.11
2022-12-22T04:53:38.834Z,80.19
2022-12-22T04:56:11.474Z,80.23
2022-12-22T04:58:40.655Z,80.32
2022-12-22T05:01:11.994Z,80.05
2022-12-22T05:03:51.479Z,79.90
2022-12-22T05:06:29.685Z,80.09
2022-12-22T05:08:59.848Z,80.31
2022-12-22T05:11:41.938Z,80.27
2022-12-22T05:14:11.453Z,80.36
2022-12-22T05:16:41.550Z,80.50
2022-12-22T05:19:10.782Z,80.51
2022-12-22T05:21:42.263Z,80.41
2022-12-22T05:24:21.365Z,80.30
2022-12-22T05:26:53.391Z,80.37
2022-12-22T05:29:34.879Z,80.25
2022-12-22T05:32:08.875Z,80.42
2022-12-22T05:34:38.027Z,80.48
2022-12-22T05:37:09.651Z,80.48
2022-12-22T05:39:44.798Z,80.50
2022-12-22T05:42:13.853Z,80.62
2022-12-22T05:44:44.518Z,80.75
2022-12-22T05:47:21.322Z,80.72
2022-12-22T05:49:54.368Z,80.67
2022-12-22T05:52:29.503Z,80.46
2022-12-22T05:54:59.647Z,80.51
2022-12-22T05:57:29.622Z,80.35
2022-12-22T06:00:00.163Z,80.24
2022-12-22T06:02:35.477Z,80.18
2022-12-22T06:05:13.587Z,80.28
2022-12-22T06:07:49.033Z,80.38
2022-12-22T06:10:21.032Z,80.30
2022-12-22T06:12:50.557Z,80.27
2022-12-22T06:15:22.036Z,80.26
2022-12-22T06:17:52.426Z,80.40
2022-12-22T06:20:29.051Z,80.43
2022-12-22T06:22:58.167Z,80.34
2022-12-22T06:25:30.111Z,80.42
2022-12-22T06:28:00.996Z,80.48
2022-12-22T06:30:33.526Z,80.31
2022-12-22T06:33:03.391Z,80.33
2022-12-22T06:35:37.457Z,80.34
2022-12-22T06:38:16.366Z,80.27
2022-12-22T06:41:09.766Z,80.36
2022-12-22T06:43:42.371Z,80.36
2022-12-22T06:46:11.733Z,80.33
2022-12-22T06:48:40.975Z,80.36
2022-12-22T06:51:09.823Z,80.38
2022-12-22T06:53:38.877Z,80.38
2022-12-22T06:56:09.436Z,80.36
2022-12-22T06:58:38.792Z,80.31
2022-12-22T07:01:07.576Z,80.37
2022-12-22T07:03:42.405Z,80.29
2022-12-22T07:06:12.420Z,80.36
2022-12-22T07:08:43.982Z,80.31
2022-12-22T07:11:14.464Z,80.44
2022-12-22T07:13:46.550Z,80.38
2022-12-22T07:16:19.808Z,80.55
2022-12-22T07:18:49.078Z,80.52
2022-12-22T07:21:26.365Z,80.60
2022-12-22T07:23:57.802Z,80.52
2022-12-22T07:26:37.366Z,80.54
2022-12-22T07:29:06.928Z,80.51
2022-12-22T07:31:43.371Z,80.51
2022-12-22T07:34:13.430Z,80.49
2022-12-22T07:36:45.749Z,80.52
2022-12-22T07:39:24.031Z,80.55
2022-12-22T07:42:12.869Z,80.44
2022-12-22T07:44:44.158Z,80.42
2022-12-22T07:47:15.972Z,80.43
2022-12-22T07:50:06.334Z,80.59
2022-12-22T07:52:37.255Z,80.54
2022-12-22T07:55:09.126Z,80.65
2022-12-22T07:57:38.281Z,80.80
2022-12-22T08:00:12.462Z,80.69
2022-12-22T08:02:51.440Z,80.72
2022-12-22T08:05:37.529Z,80.61
2022-12-22T08:08:07.156Z,80.66
2022-12-22T08:10:37.902Z,80.59
2022-12-22T08:13:07.369Z,80.74
2022-12-22T08:15:37.703Z,80.68
2022-12-22T08:18:06.817Z,80.70
2022-12-22T08:20:52.385Z,80.77
2022-12-22T08:23:26.973Z,80.70
2022-12-22T08:26:00.610Z,80.58
2022-12-22T08:28:38.358Z,80.66
2022-12-22T08:31:09.065Z,80.66
2022-12-22T08:33:40.381Z,80.63
2022-12-22T08:36:11.979Z,80.57
2022-12-22T08:38:45.339Z,80.60
2022-12-22T08:41:36.772Z,80.54
2022-12-22T08:44:08.270Z,80.62
2022-12-22T08:46:41.391Z,80.44
2022-12-22T08:49:12.575Z,80.35
2022-12-22T08:51:42.380Z,80.37
2022-12-22T08:54:11.910Z,80.23
2022-12-22T08:56:41.208Z,80.26
2022-12-22T08:59:14.224Z,80.38
2022-12-22T09:01:47.336Z,80.37
2022-12-22T09:04:21.174Z,80.32
2022-12-22T09:06:54.161Z,80.27
2022-12-22T09:09:30.818Z,80.51
2022-12-22T09:12:00.120Z,80.47
2022-12-22T09:14:30.055Z,80.54
2022-12-22T09:17:01.607Z,80.48
2022-12-22T09:19:30.711Z,80.47
2022-12-22T09:22:05.242Z,80.53
2022-12-22T09:24:36.036Z,80.54
2022-12-22T09:27:06.182Z,80.38
2022-12-22T09:29:40.418Z,80.48
2022-12-22T09:32:10.767Z,80.41
2022-12-22T09:34:39.811Z,80.49
2022-12-22T09:37:09.763Z,80.51
2022-12-22T09:39:38.755Z,80.53
2022-12-22T09:42:25.764Z,80.50
2022-12-22T09:44:54.970Z,80.50
2022-12-22T09:47:37.436Z,80.52
2022-12-22T09:50:17.752Z,80.70
2022-12-22T09:52:51.476Z,80.74
2022-12-22T09:55:38.622Z,80.73
2022-12-22T09:58:25.767Z,80.69
2022-12-22T10:01:07.727Z,80.61
2022-12-22T10:03:45.329Z,80.48
2022-12-22T10:06:17.653Z,80.51
2022-12-22T10:08:49.613Z,80.41
2022-12-22T10:11:20.915Z,80.36
2022-12-22T10:13:50.036Z,80.40
2022-12-22T10:16:24.878Z,80.26
2022-12-22T10:19:06.664Z,80.33
2022-12-22T10:21:46.419Z,80.41
2022-12-22T10:24:28.289Z,80.40
2022-12-22T10:27:00.756Z,80.26
2022-12-22T10:29:32.905Z,80.38
2022-12-22T10:32:04.508Z,80.39
2022-12-22T10:34:36.866Z,80.39
2022-12-22T10:37:07.113Z,80.40
2022-12-22T10:39:38.506Z,80.45
2022-12-22T10:42:12.985Z,80.52
2022-12-22T10:44:58.937Z,80.64
2022-12-22T10:47:31.438Z,80.42
2022-12-22T10:52:32.218Z,80.51
2022-12-22T10:55:18.133Z,80.37
2022-12-22T10:57:50.816Z,80.43
2022-12-22T11:00:31.296Z,80.40
2022-12-22T11:03:05.417Z,80.38
2022-12-22T11:05:45.279Z,80.50
2022-12-22T11:08:22.233Z,80.50
2022-12-22T11:10:58.812Z,80.57
2022-12-22T11:13:53.115Z,80.62
2022-12-22T11:16:46.114Z,80.61
2022-12-22T11:19:50.060Z,80.68
2022-12-22T11:22:31.646Z,80.62
2022-12-22T11:25:15.492Z,80.60
2022-12-22T11:27:56.808Z,80.61
2022-12-22T11:30:34.661Z,80.65
2022-12-22T11:33:36.031Z,80.66
2022-12-22T11:36:13.593Z,80.79
2022-12-22T11:38:56.037Z,80.62
2022-12-22T11:41:42.557Z,80.68
2022-12-22T11:44:28.644Z,80.56
2022-12-22T11:47:10.916Z,80.64
2022-12-22T11:49:54.883Z,80.65
2022-12-22T11:52:45.398Z,80.66
2022-12-22T11:55:37.396Z,80.74
2022-12-22T11:58:32.758Z,80.79
2022-12-22T12:01:25.886Z,80.97
2022-12-22T12:04:20.959Z,80.83
2022-12-22T12:07:27.080Z,80.67
2022-12-22T12:10:07.158Z,80.68
2022-12-22T12:12:52.877Z,80.80
2022-12-22T12:15:37.731Z,80.79
2022-12-22T12:18:26.387Z,80.68
2022-12-22T12:21:10.580Z,80.53
2022-12-22T12:24:08.074Z,80.31
2022-12-22T12:26:49.865Z,80.02
2022-12-22T12:29:27.861Z,79.87
2022-12-22T12:32:07.767Z,79.98
2022-12-22T12:34:42.303Z,79.80
2022-12-22T12:37:26.512Z,79.98
2022-12-22T12:40:07.020Z,79.98
2022-12-22T12:42:42.325Z,79.93
2022-12-22T12:45:55.001Z,79.77
2022-12-22T12:48:46.335Z,79.83
2022-12-22T12:51:48.221Z,79.91
2022-12-22T12:54:39.758Z,79.93
2022-12-22T12:57:50.467Z,79.88
2022-12-22T13:00:59.207Z,79.86
2022-12-22T13:04:03.267Z,79.96
2022-12-22T13:06:53.808Z,80.07
2022-12-22T13:12:44.209Z,80.10
2022-12-22T13:15:30.307Z,80.03
2022-12-22T13:18:04.436Z,80.17
2022-12-22T13:20:40.045Z,79.97
2022-12-22T13:23:18.499Z,80.01
2022-12-22T13:25:58.412Z,80.11
2022-12-22T13:28:30.669Z,80.08
2022-12-22T13:31:12.749Z,80.18
2022-12-22T13:33:46.792Z,80.26
2022-12-22T13:36:34.531Z,80.15
2022-12-22T13:39:15.848Z,80.25
2022-12-22T13:41:50.696Z,80.23
2022-12-22T13:44:40.330Z,80.21
2022-12-22T13:47:17.447Z,80.29
2022-12-22T13:50:07.626Z,80.38
2022-12-22T13:52:40.410Z,80.32
2022-12-22T13:55:18.214Z,80.36
2022-12-22T13:57:49.187Z,80.36
2022-12-22T14:00:24.433Z,80.39
2022-12-22T14:03:02.253Z,80.35
2022-12-22T14:05:36.615Z,80.44
2022-12-22T14:08:07.314Z,80.51
2022-12-22T14:10:56.535Z,80.54
2022-12-22T14:13:32.936Z,80.47
2022-12-22T14:16:09.845Z,80.53
2022-12-22T14:18:41.791Z,80.41
2022-12-22T14:21:18.236Z,80.51
2022-12-22T14:23:49.099Z,80.45
2022-12-22T14:26:45.251Z,80.44
2022-12-22T14:29:21.214Z,80.36
2022-12-22T14:31:57.416Z,80.40
2022-12-22T14:34:32.303Z,80.46
2022-12-22T14:37:11.935Z,80.45
2022-12-22T14:39:42.199Z,80.48
2022-12-22T14:42:15.461Z,80.38
2022-12-22T14:44:48.987Z,80.37
2022-12-22T14:47:22.291Z,80.32
2022-12-22T14:50:09.162Z,80.53
2022-12-22T14:52:46.536Z,80.38
2022-12-22T14:55:29.279Z,80.45
2022-12-22T14:58:02.909Z,80.43
2022-12-22T15:00:35.789Z,80.41
2022-12-22T15:03:27.934Z,80.40
2022-12-22T15:06:17.655Z,80.36
2022-12-22T15:09:47.196Z,80.31
2022-12-22T15:12:15.913Z,80.45
2022-12-22T15:14:48.442Z,80.46
2022-12-22T15:17:22.967Z,80.38
2022-12-22T15:19:57.123Z,80.29
2022-12-22T15:22:27.559Z,80.36
2022-12-22T15:24:57.703Z,80.36
2022-12-22T15:27:28.435Z,80.42
2022-12-22T15:29:57.429Z,80.42
2022-12-22T15:32:34.489Z,80.46
2022-12-22T15:35:17.411Z,80.53
2022-12-22T15:37:46.468Z,80.51
2022-12-22T15:40:21.741Z,80.48
2022-12-22T15:42:55.741Z,80.41
2022-12-22T15:45:24.816Z,80.45
2022-12-22T15:48:02.303Z,80.47
2022-12-22T15:50:39.094Z,80.50
2022-12-22T15:53:19.945Z,80.31
2022-12-22T15:55:54.505Z,80.46
2022-12-22T15:58:28.513Z,80.52
2022-12-22T16:00:57.773Z,80.54
2022-12-22T16:03:28.472Z,80.54
2022-12-22T16:06:05.816Z,80.44
2022-12-22T16:08:38.917Z,80.58
2022-12-22T16:11:11.487Z,80.48
2022-12-22T16:13:41.098Z,80.41
2022-12-22T16:16:11.817Z,80.41
2022-12-22T16:18:44.641Z,80.38
2022-12-22T16:21:30.117Z,80.25
2022-12-22T16:24:06.036Z,80.45
2022-12-22T16:26:43.354Z,80.45
2022-12-22T16:29:17.044Z,80.53
2022-12-22T16:31:46.088Z,80.66
2022-12-22T16:34:15.116Z,80.62
2022-12-22T16:36:44.120Z,80.60
2022-12-22T16:39:14.740Z,80.55
2022-12-22T16:41:47.545Z,80.60
2022-12-22T16:44:37.061Z,80.57
2022-12-22T16:47:15.389Z,80.46
2022-12-22T16:49:49.401Z,80.60
2022-12-22T16:52:25.216Z,80.55
2022-12-22T16:55:00.961Z,80.72
2022-12-22T16:57:29.958Z,80.70
2022-12-22T17:00:04.929Z,80.73
2022-12-22T17:02:35.353Z,80.86
2022-12-22T17:05:21.216Z,80.76
2022-12-22T17:07:50.892Z,80.68
2022-12-22T17:10:24.662Z,80.83
2022-12-22T17:12:59.326Z,80.70
2022-12-22T17:15:32.538Z,80.74
2022-12-22T17:18:04.234Z,80.82
2022-12-22T17:20:33.696Z,80.79
2022-12-22T17:23:04.917Z,80.75
2022-12-22T17:25:36.448Z,80.79
2022-12-22T17:28:05.510Z,80.75
2022-12-22T17:30:41.012Z,80.72
2022-12-22T17:33:16.979Z,80.68
2022-12-22T17:35:52.650Z,80.67
2022-12-22T17:38:27.744Z,80.74
2022-12-22T17:40:57.248Z,80.66
2022-12-22T17:43:40.191Z,80.61
2022-12-22T17:46:17.873Z,80.78
2022-12-22T17:48:49.179Z,80.68
2022-12-22T17:51:24.034Z,80.78
2022-12-22T17:54:02.506Z,80.75
2022-12-22T17:56:45.733Z,80.81
2022-12-22T17:59:28.756Z,80.76
2022-12-22T18:02:02.959Z,80.85
2022-12-22T18:04:33.007Z,80.79
2022-12-22T18:07:05.363Z,80.77
2022-12-22T18:09:37.435Z,80.74
2022-12-22T18:12:15.243Z,80.86
2022-12-22T18:14:45.823Z,80.91
2022-12-22T18:17:23.404Z,80.83
2022-12-22T18:19:55.182Z,80.89
2022-12-22T18:22:30.156Z,80.81
2022-12-22T18:25:02.691Z,80.78
2022-12-22T18:27:32.328Z,80.79
2022-12-22T18:30:01.702Z,80.85
2022-12-22T18:32:30.959Z,80.77
2022-12-22T18:35:01.430Z,80.79
2022-12-22T18:38:03.410Z,80.69
2022-12-22T18:41:24.969Z,80.80
2022-12-22T18:45:02.748Z,80.83
2022-12-22T18:48:03.705Z,80.81
2022-12-22T18:51:04.521Z,80.92
2022-12-22T18:53:36.221Z,80.84
2022-12-22T18:56:06.225Z,80.73
2022-12-22T18:58:36.309Z,80.64
2022-12-22T19:01:15.642Z,80.63
2022-12-22T19:03:50.266Z,80.69
2022-12-22T19:06:25.565Z,80.73
2022-12-22T19:09:02.523Z,80.62
2022-12-22T19:11:44.404Z,80.75
2022-12-22T19:14:19.042Z,80.75
2022-12-22T19:16:53.046Z,80.80
2022-12-22T19:19:24.760Z,80.70
2022-12-22T19:21:56.545Z,80.72
2022-12-22T19:24:29.631Z,80.69
2022-12-22T19:27:03.448Z,80.67
2022-12-22T19:29:35.410Z,80.62
2022-12-22T19:32:14.453Z,80.65
2022-12-22T19:34:48.983Z,80.62
2022-12-22T19:37:19.391Z,80.61
2022-12-22T19:39:49.150Z,80.75
2022-12-22T19:42:27.156Z,80.79
2022-12-22T19:45:22.156Z,80.71
2022-12-22T19:48:06.807Z,80.66
2022-12-22T19:51:11.955Z,80.65
2022-12-22T19:53:56.299Z,80.64
2022-12-22T19:56:44.639Z,80.60
2022-12-22T19:59:29.674Z,80.71
2022-12-22T20:02:23.399Z,80.62
2022-12-22T20:04:54.288Z,80.70
2022-12-22T20:07:28.816Z,80.77
2022-12-22T20:10:01.988Z,80.67
2022-12-22T20:12:37.790Z,80.71
2022-12-22T20:15:17.946Z,80.67
2022-12-22T20:17:52.586Z,80.70
2022-12-22T20:20:29.203Z,80.66
2022-12-22T20:23:04.246Z,80.73
2022-12-22T20:25:40.092Z,80.68
2022-12-22T20:28:15.970Z,80.68
2022-12-22T20:30:58.713Z,80.86
2022-12-22T20:33:33.776Z,80.76
2022-12-22T20:36:05.198Z,80.71
2022-12-22T20:38:36.643Z,80.68
2022-12-22T20:41:07.788Z,80.68
2022-12-22T20:43:38.382Z,80.80
2022-12-22T20:46:14.166Z,80.62
2022-12-22T20:48:46.206Z,80.67
2022-12-22T20:51:20.788Z,80.69
2022-12-22T20:53:51.610Z,80.71
2022-12-22T20:56:44.538Z,80.68
2022-12-22T20:59:16.475Z,80.70
2022-12-22T21:01:49.903Z,80.68
2022-12-22T21:04:24.807Z,80.62
2022-12-22T21:07:00.660Z,80.70
2022-12-22T21:09:32.411Z,80.70
2022-12-22T21:12:05.506Z,80.70
2022-12-22T21:14:34.730Z,80.79
2022-12-22T21:17:04.511Z,80.68
2022-12-22T21:19:33.520Z,80.61
2022-12-22T21:22:03.358Z,80.78
2022-12-22T21:24:32.457Z,80.80
2022-12-22T21:27:01.680Z,80.73
2022-12-22T21:29:31.804Z,80.76
2022-12-22T21:32:06.973Z,80.63
2022-12-22T21:34:36.567Z,80.71
2022-12-22T21:37:15.360Z,80.78
2022-12-22T21:39:45.720Z,80.73
2022-12-22T21:42:17.266Z,80.73
2022-12-22T21:44:46.614Z,80.84
2022-12-22T21:47:21.355Z,80.83
2022-12-22T21:49:50.468Z,80.81
2022-12-22T21:52:20.083Z,80.70
2022-12-22T21:54:49.255Z,80.73
2022-12-22T21:57:18.473Z,80.67
2022-12-22T21:59:47.809Z,80.73
2022-12-22T22:02:18.323Z,80.60
2022-12-22T22:04:54.122Z,80.69
2022-12-22T22:07:32.220Z,80.69
2022-12-22T22:10:03.337Z,80.72
2022-12-22T22:12:36.420Z,80.81
2022-12-22T22:15:08.249Z,80.71
2022-12-22T22:17:37.458Z,80.80
2022-12-22T22:20:09.684Z,80.72
2022-12-22T22:22:38.670Z,80.82
2022-12-22T22:25:10.045Z,80.66
2022-12-22T22:27:44.267Z,80.66
2022-12-22T22:30:19.171Z,80.64
2022-12-22T22:32:48.905Z,80.65
2022-12-22T22:35:18.696Z,80.63
2022-12-22T22:37:51.042Z,80.74
2022-12-22T22:40:22.401Z,80.64
2022-12-22T22:42:51.710Z,80.68
2022-12-22T22:45:23.223Z,80.69
2022-12-22T22:48:09.585Z,80.74
2022-12-22T22:50:48.194Z,80.79
2022-12-22T22:53:21.157Z,80.72
2022-12-22T22:55:52.472Z,80.77
2022-12-22T22:58:21.461Z,80.70
2022-12-22T23:00:53.008Z,80.79
2022-12-22T23:03:23.211Z,80.69
2022-12-22T23:06:02.573Z,80.82
2022-12-22T23:08:33.446Z,80.67
2022-12-22T23:11:03.506Z,80.74
2022-12-22T23:13:32.689Z,80.79
2022-12-22T23:16:07.478Z,80.74
2022-12-22T23:18:51.833Z,80.82
2022-12-22T23:21:23.267Z,80.82
2022-12-22T23:23:57.844Z,80.84
2022-12-22T23:26:41.593Z,80.90
2022-12-22T23:29:11.310Z,80.85
2022-12-22T23:31:44.193Z,80.89
2022-12-22T23:34:13.637Z,80.80
2022-12-22T23:36:47.382Z,80.87
2022-12-22T23:39:16.811Z,80.81
2022-12-22T23:41:46.049Z,80.97
2022-12-22T23:44:14.804Z,80.74
2022-12-22T23:46:44.038Z,80.84
2022-12-22T23:49:13.491Z,80.78
2022-12-22T23:51:42.793Z,80.89
2022-12-22T23:54:17.119Z,80.74
2022-12-22T23:56:45.943Z,80.85
2022-12-22T23:59:22.849Z,80.89
